sensor_id;sensor_type;location;lat;lon;timestamp;P1;durP1;ratioP1;P2;durP2;ratioP2
39094;SDS011;24840;47.508;19.376;2022-09-17T00:01:35;4.57;;;3.60;;
39094;SDS011;24840;47.508;19.376;2022-09-17T00:04:02;5.28;;;4.18;;
39094;SDS011;24840;47.508;19.376;2022-09-17T00:06:29;5.88;;;3.58;;
39094;SDS011;24840;47.508;19.376;2022-09-17T00:08:57;4.43;;;3.47;;
39094;SDS011;24840;47.508;19.376;2022-09-17T00:11:24;4.95;;;2.63;;
39094;SDS011;24840;47.508;19.376;2022-09-17T00:13:52;5.85;;;3.55;;
39094;SDS011;24840;47.508;19.376;2022-09-17T00:16:24;4.00;;;3.22;;
39094;SDS011;24840;47.508;19.376;2022-09-17T00:18:53;4.88;;;2.90;;
39094;SDS011;24840;47.508;19.376;2022-09-17T00:21:20;3.42;;;3.13;;
39094;SDS011;24840;47.508;19.376;2022-09-17T00:23:47;7.22;;;3.72;;
39094;SDS011;24840;47.508;19.376;2022-09-17T00:26:14;8.85;;;4.20;;
39094;SDS011;24840;47.508;19.376;2022-09-17T00:28:40;7.88;;;3.60;;
39094;SDS011;24840;47.508;19.376;2022-09-17T00:31:09;4.00;;;3.60;;
39094;SDS011;24840;47.508;19.376;2022-09-17T00:33:36;4.22;;;3.53;;
39094;SDS011;24840;47.508;19.376;2022-09-17T00:36:06;6.20;;;3.35;;
39094;SDS011;24840;47.508;19.376;2022-09-17T00:38:33;4.97;;;4.37;;
39094;SDS011;24840;47.508;19.376;2022-09-17T00:41:00;5.63;;;3.40;;
39094;SDS011;24840;47.508;19.376;2022-09-17T00:48:57;7.45;;;4.15;;
39094;SDS011;24840;47.508;19.376;2022-09-17T00:51:27;4.45;;;3.55;;
39094;SDS011;24840;47.508;19.376;2022-09-17T00:53:59;6.20;;;3.80;;
39094;SDS011;24840;47.508;19.376;2022-09-17T00:56:29;4.97;;;4.20;;
39094;SDS011;24840;47.508;19.376;2022-09-17T00:58:58;6.80;;;4.30;;
39094;SDS011;24840;47.508;19.376;2022-09-17T01:01:25;4.20;;;3.35;;
39094;SDS011;24840;47.508;19.376;2022-09-17T01:03:52;9.02;;;4.22;;
39094;SDS011;24840;47.508;19.376;2022-09-17T01:11:40;4.05;;;3.63;;
39094;SDS011;24840;47.508;19.376;2022-09-17T01:20:03;9.30;;;4.57;;
39094;SDS011;24840;47.508;19.376;2022-09-17T01:25:51;9.18;;;4.07;;
39094;SDS011;24840;47.508;19.376;2022-09-17T01:34:46;4.05;;;3.67;;
39094;SDS011;24840;47.508;19.376;2022-09-17T01:37:03;5.63;;;4.20;;
39094;SDS011;24840;47.508;19.376;2022-09-17T01:48:30;4.95;;;4.13;;
39094;SDS011;24840;47.508;19.376;2022-09-17T01:51:10;5.25;;;4.43;;
39094;SDS011;24840;47.508;19.376;2022-09-17T01:53:43;4.87;;;4.33;;
39094;SDS011;24840;47.508;19.376;2022-09-17T01:59:20;4.55;;;4.15;;
39094;SDS011;24840;47.508;19.376;2022-09-17T02:01:53;8.45;;;4.45;;
39094;SDS011;24840;47.508;19.376;2022-09-17T02:04:28;5.45;;;4.10;;
39094;SDS011;24840;47.508;19.376;2022-09-17T02:07:05;7.43;;;4.28;;
39094;SDS011;24840;47.508;19.376;2022-09-17T02:09:45;34.10;;;7.35;;
39094;SDS011;24840;47.508;19.376;2022-09-17T02:12:34;7.72;;;5.45;;
39094;SDS011;24840;47.508;19.376;2022-09-17T02:15:08;7.30;;;4.30;;
39094;SDS011;24840;47.508;19.376;2022-09-17T02:17:51;7.72;;;4.90;;
39094;SDS011;24840;47.508;19.376;2022-09-17T02:20:25;6.07;;;4.10;;
39094;SDS011;24840;47.508;19.376;2022-09-17T02:26:16;6.13;;;4.10;;
39094;SDS011;24840;47.508;19.376;2022-09-17T02:28:50;5.57;;;4.30;;
39094;SDS011;24840;47.508;19.376;2022-09-17T02:31:21;5.95;;;4.75;;
39094;SDS011;24840;47.508;19.376;2022-09-17T02:33:48;8.05;;;4.43;;
39094;SDS011;24840;47.508;19.376;2022-09-17T02:36:16;4.97;;;4.47;;
39094;SDS011;24840;47.508;19.376;2022-09-17T02:38:44;4.53;;;3.83;;
39094;SDS011;24840;47.508;19.376;2022-09-17T02:52:23;4.65;;;4.25;;
39094;SDS011;24840;47.508;19.376;2022-09-17T02:55:36;4.65;;;4.10;;
39094;SDS011;24840;47.508;19.376;2022-09-17T02:58:23;4.78;;;4.35;;
39094;SDS011;24840;47.508;19.376;2022-09-17T03:00:56;6.55;;;4.13;;
39094;SDS011;24840;47.508;19.376;2022-09-17T03:03:32;5.78;;;4.22;;
39094;SDS011;24840;47.508;19.376;2022-09-17T03:06:03;7.13;;;4.40;;
39094;SDS011;24840;47.508;19.376;2022-09-17T03:08:38;7.65;;;3.67;;
39094;SDS011;24840;47.508;19.376;2022-09-17T03:11:08;6.63;;;3.90;;
39094;SDS011;24840;47.508;19.376;2022-09-17T03:13:37;5.00;;;3.65;;
39094;SDS011;24840;47.508;19.376;2022-09-17T03:16:03;6.07;;;3.88;;
39094;SDS011;24840;47.508;19.376;2022-09-17T03:18:30;3.92;;;3.53;;
39094;SDS011;24840;47.508;19.376;2022-09-17T03:20:56;7.70;;;4.55;;
39094;SDS011;24840;47.508;19.376;2022-09-17T03:23:22;8.10;;;3.92;;
39094;SDS011;24840;47.508;19.376;2022-09-17T03:25:49;4.45;;;3.72;;
39094;SDS011;24840;47.508;19.376;2022-09-17T03:28:15;10.02;;;4.22;;
39094;SDS011;24840;47.508;19.376;2022-09-17T03:30:44;4.72;;;3.45;;
39094;SDS011;24840;47.508;19.376;2022-09-17T03:39:24;4.70;;;4.22;;
39094;SDS011;24840;47.508;19.376;2022-09-17T03:41:50;7.82;;;3.88;;
39094;SDS011;24840;47.508;19.376;2022-09-17T03:44:16;5.60;;;3.83;;
39094;SDS011;24840;47.508;19.376;2022-09-17T03:46:43;5.30;;;3.25;;
39094;SDS011;24840;47.508;19.376;2022-09-17T03:49:10;3.67;;;3.38;;
39094;SDS011;24840;47.508;19.376;2022-09-17T03:51:35;5.93;;;4.03;;
39094;SDS011;24840;47.508;19.376;2022-09-17T03:54:01;5.35;;;4.32;;
39094;SDS011;24840;47.508;19.376;2022-09-17T03:56:27;3.53;;;3.20;;
39094;SDS011;24840;47.508;19.376;2022-09-17T03:58:59;4.65;;;3.33;;
39094;SDS011;24840;47.508;19.376;2022-09-17T04:01:26;6.18;;;2.70;;
39094;SDS011;24840;47.508;19.376;2022-09-17T04:03:53;5.40;;;3.40;;
39094;SDS011;24840;47.508;19.376;2022-09-17T04:06:19;6.80;;;3.35;;
39094;SDS011;24840;47.508;19.376;2022-09-17T04:08:45;5.95;;;3.63;;
39094;SDS011;24840;47.508;19.376;2022-09-17T04:11:11;5.97;;;2.92;;
39094;SDS011;24840;47.508;19.376;2022-09-17T04:13:37;3.22;;;2.83;;
39094;SDS011;24840;47.508;19.376;2022-09-17T04:16:03;4.43;;;3.05;;
39094;SDS011;24840;47.508;19.376;2022-09-17T04:18:30;3.90;;;3.03;;
39094;SDS011;24840;47.508;19.376;2022-09-17T04:20:56;3.45;;;3.15;;
39094;SDS011;24840;47.508;19.376;2022-09-17T04:23:22;4.10;;;2.67;;
39094;SDS011;24840;47.508;19.376;2022-09-17T04:25:48;3.40;;;2.65;;
39094;SDS011;24840;47.508;19.376;2022-09-17T04:28:14;3.33;;;2.55;;
39094;SDS011;24840;47.508;19.376;2022-09-17T04:30:40;5.63;;;2.30;;
39094;SDS011;24840;47.508;19.376;2022-09-17T04:33:09;6.68;;;2.65;;
39094;SDS011;24840;47.508;19.376;2022-09-17T04:35:36;7.07;;;2.67;;
39094;SDS011;24840;47.508;19.376;2022-09-17T04:38:02;7.35;;;2.72;;
39094;SDS011;24840;47.508;19.376;2022-09-17T04:40:28;6.55;;;2.50;;
39094;SDS011;24840;47.508;19.376;2022-09-17T04:42:54;5.97;;;2.78;;
39094;SDS011;24840;47.508;19.376;2022-09-17T04:45:23;2.70;;;2.13;;
39094;SDS011;24840;47.508;19.376;2022-09-17T04:47:50;2.88;;;2.15;;
39094;SDS011;24840;47.508;19.376;2022-09-17T04:50:20;3.30;;;2.47;;
39094;SDS011;24840;47.508;19.376;2022-09-17T04:52:47;2.63;;;1.80;;
39094;SDS011;24840;47.508;19.376;2022-09-17T04:55:13;4.93;;;2.58;;
39094;SDS011;24840;47.508;19.376;2022-09-17T04:57:49;3.80;;;2.22;;
39094;SDS011;24840;47.508;19.376;2022-09-17T05:00:18;2.90;;;1.92;;
39094;SDS011;24840;47.508;19.376;2022-09-17T05:02:46;3.63;;;2.03;;
39094;SDS011;24840;47.508;19.376;2022-09-17T05:05:14;2.90;;;1.98;;
39094;SDS011;24840;47.508;19.376;2022-09-17T05:07:40;4.93;;;1.98;;
39094;SDS011;24840;47.508;19.376;2022-09-17T05:10:07;4.57;;;2.10;;
39094;SDS011;24840;47.508;19.376;2022-09-17T05:12:34;2.83;;;2.00;;
39094;SDS011;24840;47.508;19.376;2022-09-17T05:15:01;3.78;;;1.75;;
39094;SDS011;24840;47.508;19.376;2022-09-17T05:17:28;4.03;;;2.20;;
39094;SDS011;24840;47.508;19.376;2022-09-17T05:19:54;5.28;;;2.28;;
39094;SDS011;24840;47.508;19.376;2022-09-17T05:22:20;2.85;;;1.88;;
39094;SDS011;24840;47.508;19.376;2022-09-17T05:24:46;2.33;;;1.85;;
39094;SDS011;24840;47.508;19.376;2022-09-17T05:27:12;3.22;;;1.98;;
39094;SDS011;24840;47.508;19.376;2022-09-17T05:29:39;6.82;;;2.97;;
39094;SDS011;24840;47.508;19.376;2022-09-17T05:32:05;3.60;;;2.38;;
39094;SDS011;24840;47.508;19.376;2022-09-17T05:34:31;2.15;;;1.95;;
39094;SDS011;24840;47.508;19.376;2022-09-17T05:36:58;3.42;;;2.10;;
39094;SDS011;24840;47.508;19.376;2022-09-17T05:39:24;5.30;;;2.70;;
39094;SDS011;24840;47.508;19.376;2022-09-17T05:41:50;4.28;;;1.73;;
39094;SDS011;24840;47.508;19.376;2022-09-17T05:44:17;3.08;;;1.63;;
39094;SDS011;24840;47.508;19.376;2022-09-17T05:46:44;2.22;;;1.70;;
39094;SDS011;24840;47.508;19.376;2022-09-17T05:49:11;8.50;;;2.65;;
39094;SDS011;24840;47.508;19.376;2022-09-17T05:51:39;4.82;;;1.90;;
39094;SDS011;24840;47.508;19.376;2022-09-17T05:54:06;2.88;;;1.90;;
39094;SDS011;24840;47.508;19.376;2022-09-17T05:56:34;2.85;;;1.80;;
39094;SDS011;24840;47.508;19.376;2022-09-17T05:59:01;3.38;;;1.90;;
39094;SDS011;24840;47.508;19.376;2022-09-17T06:01:27;3.47;;;2.35;;
39094;SDS011;24840;47.508;19.376;2022-09-17T06:03:54;2.70;;;1.63;;
39094;SDS011;24840;47.508;19.376;2022-09-17T06:06:20;4.78;;;2.30;;
39094;SDS011;24840;47.508;19.376;2022-09-17T06:08:46;2.90;;;1.98;;
39094;SDS011;24840;47.508;19.376;2022-09-17T06:11:12;3.08;;;2.63;;
39094;SDS011;24840;47.508;19.376;2022-09-17T06:13:39;4.07;;;2.72;;
39094;SDS011;24840;47.508;19.376;2022-09-17T06:16:07;2.47;;;2.00;;
39094;SDS011;24840;47.508;19.376;2022-09-17T06:18:34;4.72;;;2.40;;
39094;SDS011;24840;47.508;19.376;2022-09-17T06:21:01;3.15;;;1.80;;
39094;SDS011;24840;47.508;19.376;2022-09-17T06:23:31;3.00;;;1.88;;
39094;SDS011;24840;47.508;19.376;2022-09-17T06:26:02;4.40;;;1.88;;
39094;SDS011;24840;47.508;19.376;2022-09-17T06:28:30;3.03;;;2.40;;
39094;SDS011;24840;47.508;19.376;2022-09-17T06:31:00;4.53;;;3.20;;
39094;SDS011;24840;47.508;19.376;2022-09-17T06:33:28;7.50;;;2.25;;
39094;SDS011;24840;47.508;19.376;2022-09-17T06:35:59;4.95;;;2.72;;
39094;SDS011;24840;47.508;19.376;2022-09-17T06:38:27;7.72;;;2.78;;
39094;SDS011;24840;47.508;19.376;2022-09-17T06:40:54;6.75;;;2.33;;
39094;SDS011;24840;47.508;19.376;2022-09-17T06:43:21;4.38;;;2.25;;
39094;SDS011;24840;47.508;19.376;2022-09-17T06:45:54;6.72;;;2.78;;
39094;SDS011;24840;47.508;19.376;2022-09-17T06:48:23;2.80;;;2.20;;
39094;SDS011;24840;47.508;19.376;2022-09-17T06:50:51;6.07;;;2.97;;
39094;SDS011;24840;47.508;19.376;2022-09-17T06:53:21;3.10;;;2.30;;
39094;SDS011;24840;47.508;19.376;2022-09-17T06:55:48;2.70;;;2.38;;
39094;SDS011;24840;47.508;19.376;2022-09-17T06:58:15;6.68;;;2.42;;
39094;SDS011;24840;47.508;19.376;2022-09-17T07:00:42;4.10;;;2.58;;
39094;SDS011;24840;47.508;19.376;2022-09-17T07:03:08;3.00;;;2.38;;
39094;SDS011;24840;47.508;19.376;2022-09-17T07:05:35;6.70;;;2.65;;
39094;SDS011;24840;47.508;19.376;2022-09-17T07:08:01;3.88;;;2.55;;
39094;SDS011;24840;47.508;19.376;2022-09-17T07:10:28;4.82;;;1.90;;
39094;SDS011;24840;47.508;19.376;2022-09-17T07:12:54;3.00;;;2.28;;
39094;SDS011;24840;47.508;19.376;2022-09-17T07:15:20;3.78;;;2.28;;
39094;SDS011;24840;47.508;19.376;2022-09-17T07:17:46;3.60;;;1.95;;
39094;SDS011;24840;47.508;19.376;2022-09-17T07:20:12;3.25;;;2.50;;
39094;SDS011;24840;47.508;19.376;2022-09-17T07:22:38;4.30;;;2.35;;
39094;SDS011;24840;47.508;19.376;2022-09-17T07:25:05;10.35;;;2.78;;
39094;SDS011;24840;47.508;19.376;2022-09-17T07:27:47;2.95;;;2.25;;
39094;SDS011;24840;47.508;19.376;2022-09-17T07:33:01;3.83;;;2.00;;
39094;SDS011;24840;47.508;19.376;2022-09-17T07:35:27;3.85;;;2.35;;
39094;SDS011;24840;47.508;19.376;2022-09-17T07:37:54;4.28;;;2.25;;
39094;SDS011;24840;47.508;19.376;2022-09-17T07:40:20;5.63;;;1.83;;
39094;SDS011;24840;47.508;19.376;2022-09-17T07:42:46;2.03;;;1.83;;
39094;SDS011;24840;47.508;19.376;2022-09-17T07:45:11;2.78;;;1.80;;
39094;SDS011;24840;47.508;19.376;2022-09-17T07:47:38;8.75;;;2.40;;
39094;SDS011;24840;47.508;19.376;2022-09-17T07:50:06;3.08;;;2.35;;
39094;SDS011;24840;47.508;19.376;2022-09-17T07:52:32;4.07;;;2.00;;
39094;SDS011;24840;47.508;19.376;2022-09-17T07:54:58;3.35;;;2.20;;
39094;SDS011;24840;47.508;19.376;2022-09-17T07:59:54;5.40;;;2.08;;
39094;SDS011;24840;47.508;19.376;2022-09-17T08:02:20;3.67;;;2.42;;
39094;SDS011;24840;47.508;19.376;2022-09-17T08:04:46;3.75;;;1.77;;
39094;SDS011;24840;47.508;19.376;2022-09-17T08:07:12;3.63;;;1.83;;
39094;SDS011;24840;47.508;19.376;2022-09-17T08:09:38;3.28;;;2.30;;
39094;SDS011;24840;47.508;19.376;2022-09-17T08:12:07;2.20;;;2.00;;
39094;SDS011;24840;47.508;19.376;2022-09-17T08:14:33;3.22;;;1.80;;
39094;SDS011;24840;47.508;19.376;2022-09-17T08:19:37;3.80;;;2.08;;
39094;SDS011;24840;47.508;19.376;2022-09-17T08:22:03;3.20;;;1.90;;
39094;SDS011;24840;47.508;19.376;2022-09-17T08:24:32;2.00;;;1.42;;
39094;SDS011;24840;47.508;19.376;2022-09-17T08:29:31;3.22;;;1.98;;
39094;SDS011;24840;47.508;19.376;2022-09-17T08:31:57;5.75;;;1.42;;
39094;SDS011;24840;47.508;19.376;2022-09-17T08:37:21;3.20;;;1.70;;
39094;SDS011;24840;47.508;19.376;2022-09-17T08:39:47;2.72;;;1.23;;
39094;SDS011;24840;47.508;19.376;2022-09-17T08:45:21;2.90;;;1.70;;
39094;SDS011;24840;47.508;19.376;2022-09-17T08:47:49;5.32;;;1.73;;
39094;SDS011;24840;47.508;19.376;2022-09-17T08:50:26;1.70;;;1.30;;
39094;SDS011;24840;47.508;19.376;2022-09-17T08:56:00;2.47;;;1.45;;
39094;SDS011;24840;47.508;19.376;2022-09-17T09:07:14;6.38;;;1.00;;
39094;SDS011;24840;47.508;19.376;2022-09-17T09:09:48;2.88;;;1.55;;
39094;SDS011;24840;47.508;19.376;2022-09-17T09:12:25;1.50;;;1.05;;
39094;SDS011;24840;47.508;19.376;2022-09-17T09:14:57;5.20;;;1.50;;
39094;SDS011;24840;47.508;19.376;2022-09-17T09:17:33;2.85;;;0.80;;
39094;SDS011;24840;47.508;19.376;2022-09-17T09:20:11;3.30;;;1.58;;
39094;SDS011;24840;47.508;19.376;2022-09-17T09:22:48;4.35;;;1.08;;
39094;SDS011;24840;47.508;19.376;2022-09-17T09:25:18;3.20;;;0.70;;
39094;SDS011;24840;47.508;19.376;2022-09-17T09:30:20;1.35;;;1.00;;
39094;SDS011;24840;47.508;19.376;2022-09-17T09:35:40;2.47;;;0.85;;
39094;SDS011;24840;47.508;19.376;2022-09-17T09:40:51;4.32;;;1.00;;
39094;SDS011;24840;47.508;19.376;2022-09-17T09:44:04;1.75;;;1.00;;
39094;SDS011;24840;47.508;19.376;2022-09-17T09:49:56;1.98;;;1.13;;
39094;SDS011;24840;47.508;19.376;2022-09-17T09:52:44;4.30;;;1.20;;
39094;SDS011;24840;47.508;19.376;2022-09-17T09:58:04;3.72;;;1.60;;
39094;SDS011;24840;47.508;19.376;2022-09-17T10:00:46;2.53;;;1.27;;
39094;SDS011;24840;47.508;19.376;2022-09-17T10:08:25;3.38;;;1.45;;
39094;SDS011;24840;47.508;19.376;2022-09-17T10:10:54;4.82;;;1.42;;
39094;SDS011;24840;47.508;19.376;2022-09-17T10:13:26;4.57;;;1.83;;
39094;SDS011;24840;47.508;19.376;2022-09-17T10:16:06;11.73;;;2.15;;
39094;SDS011;24840;47.508;19.376;2022-09-17T10:21:32;2.03;;;1.27;;
39094;SDS011;24840;47.508;19.376;2022-09-17T10:23:58;2.35;;;1.20;;
39094;SDS011;24840;47.508;19.376;2022-09-17T10:26:30;2.30;;;1.40;;
39094;SDS011;24840;47.508;19.376;2022-09-17T10:29:00;2.78;;;1.85;;
39094;SDS011;24840;47.508;19.376;2022-09-17T10:34:19;2.10;;;1.27;;
39094;SDS011;24840;47.508;19.376;2022-09-17T10:36:53;2.53;;;1.65;;
39094;SDS011;24840;47.508;19.376;2022-09-17T10:41:55;4.82;;;1.75;;
39094;SDS011;24840;47.508;19.376;2022-09-17T10:44:23;3.43;;;1.70;;
39094;SDS011;24840;47.508;19.376;2022-09-17T10:49:31;2.45;;;1.40;;
39094;SDS011;24840;47.508;19.376;2022-09-17T10:52:07;2.80;;;1.55;;
39094;SDS011;24840;47.508;19.376;2022-09-17T10:57:42;3.70;;;1.30;;
39094;SDS011;24840;47.508;19.376;2022-09-17T11:00:25;6.47;;;1.83;;
39094;SDS011;24840;47.508;19.376;2022-09-17T11:08:42;2.85;;;1.55;;
39094;SDS011;24840;47.508;19.376;2022-09-17T11:14:56;3.25;;;1.73;;
39094;SDS011;24840;47.508;19.376;2022-09-17T11:35:20;3.63;;;1.58;;
39094;SDS011;24840;47.508;19.376;2022-09-17T11:38:05;1.90;;;1.30;;
39094;SDS011;24840;47.508;19.376;2022-09-17T11:40:51;6.75;;;1.73;;
39094;SDS011;24840;47.508;19.376;2022-09-17T11:43:26;2.83;;;1.48;;
39094;SDS011;24840;47.508;19.376;2022-09-17T11:51:41;3.78;;;1.20;;
39094;SDS011;24840;47.508;19.376;2022-09-17T12:05:08;3.63;;;1.02;;
39094;SDS011;24840;47.508;19.376;2022-09-17T12:07:49;2.80;;;1.35;;
39094;SDS011;24840;47.508;19.376;2022-09-17T12:10:31;3.70;;;1.35;;
39094;SDS011;24840;47.508;19.376;2022-09-17T12:13:01;2.55;;;0.80;;
39094;SDS011;24840;47.508;19.376;2022-09-17T12:18:48;2.78;;;1.27;;
39094;SDS011;24840;47.508;19.376;2022-09-17T12:21:36;3.13;;;0.90;;
39094;SDS011;24840;47.508;19.376;2022-09-17T12:30:21;1.17;;;0.90;;
39094;SDS011;24840;47.508;19.376;2022-09-17T12:41:30;2.53;;;0.90;;
39094;SDS011;24840;47.508;19.376;2022-09-17T12:47:40;2.92;;;0.65;;
39094;SDS011;24840;47.508;19.376;2022-09-17T12:53:41;5.10;;;1.10;;
39094;SDS011;24840;47.508;19.376;2022-09-17T12:59:11;2.38;;;0.95;;
39094;SDS011;24840;47.508;19.376;2022-09-17T13:02:03;2.97;;;0.85;;
39094;SDS011;24840;47.508;19.376;2022-09-17T13:13:12;3.22;;;0.90;;
39094;SDS011;24840;47.508;19.376;2022-09-17T13:15:59;1.30;;;0.70;;
39094;SDS011;24840;47.508;19.376;2022-09-17T13:18:31;3.50;;;0.85;;
39094;SDS011;24840;47.508;19.376;2022-09-17T13:21:08;1.33;;;0.68;;
39094;SDS011;24840;47.508;19.376;2022-09-17T13:23:40;1.85;;;0.70;;
39094;SDS011;24840;47.508;19.376;2022-09-17T13:26:10;2.15;;;0.60;;
39094;SDS011;24840;47.508;19.376;2022-09-17T13:28:42;2.83;;;1.05;;
39094;SDS011;24840;47.508;19.376;2022-09-17T13:31:09;2.75;;;0.80;;
39094;SDS011;24840;47.508;19.376;2022-09-17T13:33:49;2.72;;;0.82;;
39094;SDS011;24840;47.508;19.376;2022-09-17T13:42:27;3.03;;;0.75;;
39094;SDS011;24840;47.508;19.376;2022-09-17T13:45:03;3.65;;;1.00;;
39094;SDS011;24840;47.508;19.376;2022-09-17T13:52:57;3.55;;;1.20;;
39094;SDS011;24840;47.508;19.376;2022-09-17T13:55:53;4.22;;;1.15;;
39094;SDS011;24840;47.508;19.376;2022-09-17T13:58:33;3.72;;;0.93;;
39094;SDS011;24840;47.508;19.376;2022-09-17T14:01:02;3.47;;;1.20;;
39094;SDS011;24840;47.508;19.376;2022-09-17T14:13:56;8.13;;;3.55;;
39094;SDS011;24840;47.508;19.376;2022-09-17T14:19:18;6.35;;;1.30;;
39094;SDS011;24840;47.508;19.376;2022-09-17T14:27:12;4.40;;;1.20;;
39094;SDS011;24840;47.508;19.376;2022-09-17T14:38:20;4.07;;;1.30;;
39094;SDS011;24840;47.508;19.376;2022-09-17T14:40:52;3.75;;;1.17;;
39094;SDS011;24840;47.508;19.376;2022-09-17T14:46:21;2.35;;;1.00;;
39094;SDS011;24840;47.508;19.376;2022-09-17T14:48:53;2.13;;;1.20;;
39094;SDS011;24840;47.508;19.376;2022-09-17T14:51:24;2.17;;;1.20;;
39094;SDS011;24840;47.508;19.376;2022-09-17T14:54:05;3.42;;;1.50;;
39094;SDS011;24840;47.508;19.376;2022-09-17T14:56:53;2.95;;;1.20;;
39094;SDS011;24840;47.508;19.376;2022-09-17T15:02:21;2.03;;;1.15;;
39094;SDS011;24840;47.508;19.376;2022-09-17T15:04:56;3.45;;;1.38;;
39094;SDS011;24840;47.508;19.376;2022-09-17T15:07:23;5.35;;;1.23;;
39094;SDS011;24840;47.508;19.376;2022-09-17T15:09:49;5.20;;;1.23;;
39094;SDS011;24840;47.508;19.376;2022-09-17T15:12:19;4.90;;;1.73;;
39094;SDS011;24840;47.508;19.376;2022-09-17T15:14:54;7.20;;;1.40;;
39094;SDS011;24840;47.508;19.376;2022-09-17T15:17:21;3.28;;;1.35;;
39094;SDS011;24840;47.508;19.376;2022-09-17T15:19:49;2.97;;;1.73;;
39094;SDS011;24840;47.508;19.376;2022-09-17T15:22:22;3.80;;;1.95;;
39094;SDS011;24840;47.508;19.376;2022-09-17T15:25:04;2.70;;;1.23;;
39094;SDS011;24840;47.508;19.376;2022-09-17T15:27:33;4.25;;;1.80;;
39094;SDS011;24840;47.508;19.376;2022-09-17T15:30:24;4.07;;;1.60;;
39094;SDS011;24840;47.508;19.376;2022-09-17T15:32:55;4.00;;;1.48;;
39094;SDS011;24840;47.508;19.376;2022-09-17T15:36:24;3.13;;;1.83;;
39094;SDS011;24840;47.508;19.376;2022-09-17T15:39:46;6.03;;;1.90;;
39094;SDS011;24840;47.508;19.376;2022-09-17T15:44:50;2.78;;;1.52;;
39094;SDS011;24840;47.508;19.376;2022-09-17T15:47:46;4.75;;;1.80;;
39094;SDS011;24840;47.508;19.376;2022-09-17T15:50:26;7.07;;;1.75;;
39094;SDS011;24840;47.508;19.376;2022-09-17T15:59:15;2.88;;;1.27;;
39094;SDS011;24840;47.508;19.376;2022-09-17T16:01:52;4.07;;;2.20;;
39094;SDS011;24840;47.508;19.376;2022-09-17T16:12:24;7.13;;;2.23;;
39094;SDS011;24840;47.508;19.376;2022-09-17T16:14:56;7.10;;;2.58;;
39094;SDS011;24840;47.508;19.376;2022-09-17T16:20:06;7.05;;;2.58;;
39094;SDS011;24840;47.508;19.376;2022-09-17T16:22:46;5.28;;;2.40;;
39094;SDS011;24840;47.508;19.376;2022-09-17T16:25:12;4.65;;;1.98;;
39094;SDS011;24840;47.508;19.376;2022-09-17T16:27:43;7.88;;;1.95;;
39094;SDS011;24840;47.508;19.376;2022-09-17T16:30:13;6.20;;;2.00;;
39094;SDS011;24840;47.508;19.376;2022-09-17T16:32:43;5.28;;;2.50;;
39094;SDS011;24840;47.508;19.376;2022-09-17T16:35:11;3.28;;;1.92;;
39094;SDS011;24840;47.508;19.376;2022-09-17T16:37:41;4.00;;;2.13;;
39094;SDS011;24840;47.508;19.376;2022-09-17T16:40:09;6.70;;;2.10;;
39094;SDS011;24840;47.508;19.376;2022-09-17T16:42:38;4.38;;;2.35;;
39094;SDS011;24840;47.508;19.376;2022-09-17T16:45:04;4.22;;;2.00;;
39094;SDS011;24840;47.508;19.376;2022-09-17T16:47:37;3.03;;;2.22;;
39094;SDS011;24840;47.508;19.376;2022-09-17T16:50:05;4.90;;;2.10;;
39094;SDS011;24840;47.508;19.376;2022-09-17T16:52:48;4.22;;;2.33;;
39094;SDS011;24840;47.508;19.376;2022-09-17T16:55:15;6.22;;;3.42;;
39094;SDS011;24840;47.508;19.376;2022-09-17T16:57:42;3.92;;;2.80;;
39094;SDS011;24840;47.508;19.376;2022-09-17T17:00:09;9.85;;;4.13;;
39094;SDS011;24840;47.508;19.376;2022-09-17T17:02:37;4.20;;;3.38;;
39094;SDS011;24840;47.508;19.376;2022-09-17T17:05:04;6.93;;;4.18;;
39094;SDS011;24840;47.508;19.376;2022-09-17T17:07:31;9.18;;;4.60;;
39094;SDS011;24840;47.508;19.376;2022-09-17T17:10:02;5.85;;;3.33;;
39094;SDS011;24840;47.508;19.376;2022-09-17T17:12:29;3.45;;;2.42;;
39094;SDS011;24840;47.508;19.376;2022-09-17T17:14:55;6.55;;;3.20;;
39094;SDS011;24840;47.508;19.376;2022-09-17T17:17:21;5.57;;;2.90;;
39094;SDS011;24840;47.508;19.376;2022-09-17T17:19:47;8.15;;;2.53;;
39094;SDS011;24840;47.508;19.376;2022-09-17T17:22:13;8.02;;;2.35;;
39094;SDS011;24840;47.508;19.376;2022-09-17T17:24:39;2.65;;;1.70;;
39094;SDS011;24840;47.508;19.376;2022-09-17T17:27:05;5.38;;;1.83;;
39094;SDS011;24840;47.508;19.376;2022-09-17T17:29:33;5.38;;;1.83;;
39094;SDS011;24840;47.508;19.376;2022-09-17T17:32:01;5.60;;;3.38;;
39094;SDS011;24840;47.508;19.376;2022-09-17T17:34:28;4.07;;;1.92;;
39094;SDS011;24840;47.508;19.376;2022-09-17T17:36:55;13.75;;;2.25;;
39094;SDS011;24840;47.508;19.376;2022-09-17T17:39:21;3.78;;;1.33;;
39094;SDS011;24840;47.508;19.376;2022-09-17T17:41:47;3.40;;;2.10;;
39094;SDS011;24840;47.508;19.376;2022-09-17T17:44:13;11.25;;;2.33;;
39094;SDS011;24840;47.508;19.376;2022-09-17T17:46:39;3.65;;;2.10;;
39094;SDS011;24840;47.508;19.376;2022-09-17T17:49:06;4.93;;;3.10;;
39094;SDS011;24840;47.508;19.376;2022-09-17T17:51:33;9.25;;;3.40;;
39094;SDS011;24840;47.508;19.376;2022-09-17T17:53:59;11.05;;;7.97;;
39094;SDS011;24840;47.508;19.376;2022-09-17T17:56:25;4.60;;;2.50;;
39094;SDS011;24840;47.508;19.376;2022-09-17T17:58:56;6.68;;;2.75;;
39094;SDS011;24840;47.508;19.376;2022-09-17T18:01:24;5.30;;;1.98;;
39094;SDS011;24840;47.508;19.376;2022-09-17T18:03:58;4.85;;;2.13;;
39094;SDS011;24840;47.508;19.376;2022-09-17T18:06:25;3.22;;;1.77;;
39094;SDS011;24840;47.508;19.376;2022-09-17T18:08:53;3.17;;;2.30;;
39094;SDS011;24840;47.508;19.376;2022-09-17T18:11:19;4.03;;;2.42;;
39094;SDS011;24840;47.508;19.376;2022-09-17T18:13:49;3.88;;;1.95;;
39094;SDS011;24840;47.508;19.376;2022-09-17T18:16:17;3.20;;;2.33;;
39094;SDS011;24840;47.508;19.376;2022-09-17T18:18:44;3.28;;;1.90;;
39094;SDS011;24840;47.508;19.376;2022-09-17T18:21:11;4.95;;;1.70;;
39094;SDS011;24840;47.508;19.376;2022-09-17T18:23:42;5.82;;;2.08;;
39094;SDS011;24840;47.508;19.376;2022-09-17T18:26:10;2.97;;;2.15;;
39094;SDS011;24840;47.508;19.376;2022-09-17T18:28:43;9.00;;;2.92;;
39094;SDS011;24840;47.508;19.376;2022-09-17T18:31:26;3.85;;;2.88;;
39094;SDS011;24840;47.508;19.376;2022-09-17T18:33:54;6.22;;;2.80;;
39094;SDS011;24840;47.508;19.376;2022-09-17T18:36:26;4.00;;;2.22;;
39094;SDS011;24840;47.508;19.376;2022-09-17T18:38:54;8.15;;;2.75;;
39094;SDS011;24840;47.508;19.376;2022-09-17T18:41:22;5.57;;;3.33;;
39094;SDS011;24840;47.508;19.376;2022-09-17T18:43:48;3.20;;;1.60;;
39094;SDS011;24840;47.508;19.376;2022-09-17T18:46:14;5.43;;;2.20;;
39094;SDS011;24840;47.508;19.376;2022-09-17T18:48:40;3.97;;;1.92;;
39094;SDS011;24840;47.508;19.376;2022-09-17T18:51:08;5.22;;;1.75;;
39094;SDS011;24840;47.508;19.376;2022-09-17T18:53:36;6.40;;;2.28;;
39094;SDS011;24840;47.508;19.376;2022-09-17T18:58:45;3.20;;;2.03;;
39094;SDS011;24840;47.508;19.376;2022-09-17T19:01:12;4.82;;;4.05;;
39094;SDS011;24840;47.508;19.376;2022-09-17T19:03:39;6.60;;;2.80;;
39094;SDS011;24840;47.508;19.376;2022-09-17T19:06:05;4.15;;;2.55;;
39094;SDS011;24840;47.508;19.376;2022-09-17T19:08:33;13.02;;;3.20;;
39094;SDS011;24840;47.508;19.376;2022-09-17T19:10:59;5.25;;;3.92;;
39094;SDS011;24840;47.508;19.376;2022-09-17T19:13:26;9.88;;;4.70;;
39094;SDS011;24840;47.508;19.376;2022-09-17T19:15:58;5.55;;;4.20;;
39094;SDS011;24840;47.508;19.376;2022-09-17T19:18:25;6.28;;;4.72;;
39094;SDS011;24840;47.508;19.376;2022-09-17T19:20:57;8.30;;;4.10;;